Time;durP1;ratioP1;P1;durP2;ratioP2;P2;SDS_P1;SDS_P2;PMS_P1;PMS_P2;Temp;Humidity;BMP_temperature;BMP_pressure;BME280_temperature;BME280_humidity;BME280_pressure;Samples;Min_cycle;Max_cycle;Signal;HPM_P1;HPM_P2
2021/01/08 00:00:10;;;;;;;19.10;10.63;;;1.30;97.20;;;;;;5126054;27;27313;-57
2021/01/08 00:02:58;;;;;;;17.80;11.38;;;1.30;97.20;;;;;;5122086;27;27335;-56
2021/01/08 00:05:43;;;;;;;20.77;11.88;;;1.30;97.20;;;;;;5125797;27;27864;-56
2021/01/08 00:08:27;;;;;;;17.50;11.00;;;1.30;97.20;;;;;;5125820;27;27327;-57
2021/01/08 00:11:19;;;;;;;16.83;10.57;;;1.30;97.20;;;;;;5125832;27;27311;-57
2021/01/08 00:14:05;;;;;;;19.10;11.05;;;1.30;97.20;;;;;;5122425;27;27357;-57
2021/01/08 00:16:49;;;;;;;18.38;11.48;;;1.30;97.20;;;;;;5125174;27;27405;-49
2021/01/08 00:19:34;;;;;;;18.40;10.75;;;1.30;97.20;;;;;;5125575;27;27421;-57
2021/01/08 00:22:19;;;;;;;20.00;10.77;;;1.30;97.20;;;;;;5124657;27;28219;-57
2021/01/08 00:25:04;;;;;;;20.60;11.68;;;1.30;97.20;;;;;;5125250;27;27467;-57
2021/01/08 00:27:49;;;;;;;20.65;10.95;;;1.40;97.20;;;;;;5125551;27;27395;-56
2021/01/08 00:30:33;;;;;;;19.67;11.00;;;1.30;97.10;;;;;;5125478;27;27437;-55
2021/01/08 00:33:18;;;;;;;19.35;10.88;;;1.30;97.10;;;;;;5121205;27;27475;-49
2021/01/08 00:36:04;;;;;;;18.70;11.30;;;1.30;97.10;;;;;;5125110;27;26848;-56
2021/01/08 00:38:48;;;;;;;19.77;12.00;;;1.30;97.20;;;;;;5125309;27;27469;-56
2021/01/08 00:41:33;;;;;;;17.77;10.52;;;1.30;97.20;;;;;;5124840;27;27419;-56
2021/01/08 00:44:18;;;;;;;19.77;11.07;;;1.40;97.20;;;;;;5121745;27;27433;-56
2021/01/08 00:47:05;;;;;;;21.58;12.57;;;1.40;97.20;;;;;;5124904;27;27452;-55
2021/01/08 00:49:49;;;;;;;18.17;10.88;;;1.40;97.20;;;;;;5124729;27;27396;-56
2021/01/08 00:52:34;;;;;;;16.80;10.45;;;1.40;97.10;;;;;;5120753;27;27429;-54
2021/01/08 00:55:19;;;;;;;17.15;10.85;;;1.40;97.10;;;;;;5125278;27;27460;-55
2021/01/08 00:58:13;;;;;;;22.15;11.27;;;1.40;97.10;;;;;;5121020;27;27473;-56
2021/01/08 01:00:57;;;;;;;20.95;11.77;;;1.40;97.50;;;;;;5124734;27;27471;-53
2021/01/08 01:03:42;;;;;;;16.77;9.73;;;1.40;97.10;;;;;;5124407;27;27472;-56
2021/01/08 01:06:31;;;;;;;19.42;10.70;;;1.40;97.10;;;;;;5124708;27;27421;-56
2021/01/08 01:09:16;;;;;;;17.77;9.98;;;1.40;97.10;;;;;;5124968;27;27414;-56
2021/01/08 01:12:01;;;;;;;20.13;10.93;;;1.40;97.10;;;;;;5124860;27;27382;-56
2021/01/08 01:14:46;;;;;;;17.25;11.07;;;1.40;97.10;;;;;;5124847;27;27373;-56
2021/01/08 01:17:30;;;;;;;23.52;11.73;;;1.40;97.10;;;;;;5124358;27;27363;-55
2021/01/08 01:20:15;;;;;;;17.40;10.68;;;1.40;97.10;;;;;;5124537;27;27316;-56
2021/01/08 01:22:59;;;;;;;18.27;10.63;;;1.40;97.10;;;;;;5124282;27;27366;-55
2021/01/08 01:25:44;;;;;;;19.45;11.15;;;1.40;97.10;;;;;;5124412;27;27410;-56
2021/01/08 01:28:28;;;;;;;17.90;10.65;;;1.40;97.10;;;;;;5124520;27;27484;-56
2021/01/08 01:31:13;;;;;;;20.20;11.38;;;1.40;97.10;;;;;;5127861;27;27441;-55
2021/01/08 01:33:58;;;;;;;18.63;10.73;;;1.40;97.10;;;;;;5128166;27;27891;-55
2021/01/08 01:36:45;;;;;;;17.58;10.82;;;1.40;97.10;;;;;;5127453;27;27399;-56
2021/01/08 01:39:29;;;;;;;20.40;11.25;;;1.40;97.00;;;;;;5127443;27;27396;-55
2021/01/08 01:42:14;;;;;;;16.75;10.10;;;1.40;97.00;;;;;;5123631;27;27413;-56
2021/01/08 01:44:58;;;;;;;18.60;11.15;;;1.40;97.10;;;;;;5127359;27;27886;-56
2021/01/08 01:47:43;;;;;;;18.65;10.75;;;1.30;97.00;;;;;;5128002;27;27467;-56
2021/01/08 01:50:28;;;;;;;20.20;10.52;;;1.30;97.00;;;;;;5127021;27;27431;-56
2021/01/08 01:53:12;;;;;;;19.85;10.98;;;1.30;97.10;;;;;;5127176;27;27491;-57
2021/01/08 01:55:57;;;;;;;19.10;10.60;;;1.30;97.10;;;;;;5126824;27;27876;-58
2021/01/08 01:58:41;;;;;;;17.67;10.90;;;1.30;97.10;;;;;;5126803;27;27429;-57
2021/01/08 02:01:26;;;;;;;21.30;10.77;;;1.30;97.10;;;;;;5123560;27;27460;-58
2021/01/08 02:04:10;;;;;;;19.98;10.48;;;1.30;97.10;;;;;;5127045;27;27459;-58
2021/01/08 02:06:55;;;;;;;19.27;12.13;;;1.30;97.10;;;;;;5127447;27;27855;-58
2021/01/08 02:09:40;;;;;;;18.85;11.25;;;1.30;97.10;;;;;;5112434;27;27504;-58
2021/01/08 02:12:25;;;;;;;17.20;10.95;;;1.30;97.10;;;;;;5127366;27;27489;-58
2021/01/08 02:15:10;;;;;;;18.02;10.63;;;1.30;97.10;;;;;;5126861;27;27472;-58
2021/01/08 02:17:55;;;;;;;16.58;10.05;;;1.30;97.20;;;;;;5126449;27;27604;-57
2021/01/08 02:20:40;;;;;;;19.13;11.00;;;1.30;97.20;;;;;;5112348;27;27430;-57
2021/01/08 02:23:26;;;;;;;19.35;11.15;;;1.30;97.20;;;;;;5111766;27;27455;-57
2021/01/08 02:26:11;;;;;;;21.00;11.85;;;1.30;97.20;;;;;;5126473;27;27480;-57
2021/01/08 02:28:56;;;;;;;19.42;10.38;;;1.30;97.10;;;;;;5112100;27;27484;-57
2021/01/08 02:31:41;;;;;;;20.13;11.27;;;1.30;97.10;;;;;;5126307;27;27461;-57
2021/01/08 02:34:25;;;;;;;20.88;10.80;;;1.30;97.10;;;;;;5127370;27;27426;-57
2021/01/08 02:37:10;;;;;;;23.42;10.90;;;1.30;97.10;;;;;;5126328;27;27457;-58
2021/01/08 02:39:54;;;;;;;18.60;10.68;;;1.30;97.10;;;;;;5125499;27;27604;-58
2021/01/08 02:42:39;;;;;;;19.20;11.63;;;1.30;97.10;;;;;;5125951;27;27427;-58
2021/01/08 02:45:24;;;;;;;19.25;11.70;;;1.30;97.10;;;;;;5126436;27;27389;-58
2021/01/08 02:48:08;;;;;;;17.60;10.25;;;1.30;97.10;;;;;;5127060;27;27332;-58
2021/01/08 02:50:53;;;;;;;16.98;10.90;;;1.30;97.10;;;;;;5126923;27;27349;-57
2021/01/08 02:53:38;;;;;;;17.92;10.45;;;1.30;97.10;;;;;;5126658;27;27398;-57
2021/01/08 02:56:26;;;;;;;20.77;10.98;;;1.30;97.10;;;;;;5125938;27;27413;-57
2021/01/08 02:59:12;;;;;;;16.40;9.63;;;1.30;97.20;;;;;;5126586;27;27451;-57
2021/01/08 03:01:56;;;;;;;18.08;10.43;;;1.30;97.10;;;;;;5111253;27;27423;-58
2021/01/08 03:04:41;;;;;;;17.50;10.60;;;1.30;97.10;;;;;;5126726;27;27415;-58
2021/01/08 03:07:25;;;;;;;16.05;10.00;;;1.30;97.10;;;;;;5125702;27;27480;-58
2021/01/08 03:10:11;;;;;;;18.27;10.88;;;1.30;97.10;;;;;;5122366;27;27387;-58
2021/01/08 03:13:04;;;;;;;18.23;10.75;;;1.30;97.10;;;;;;5125590;27;27954;-58
2021/01/08 03:15:48;;;;;;;18.92;11.13;;;1.30;97.00;;;;;;5125570;27;27389;-58
2021/01/08 03:18:32;;;;;;;16.30;9.85;;;1.30;97.10;;;;;;5126313;27;27399;-58
2021/01/08 03:21:17;;;;;;;18.48;10.30;;;1.20;97.00;;;;;;5126296;27;27381;-59
2021/01/08 03:24:01;;;;;;;15.57;9.40;;;1.20;97.10;;;;;;5126127;27;27319;-59
2021/01/08 03:26:46;;;;;;;21.85;11.07;;;1.20;97.10;;;;;;5126212;27;27401;-58
2021/01/08 03:29:30;;;;;;;17.63;10.63;;;1.20;97.10;;;;;;5126441;27;27392;-58
2021/01/08 03:32:15;;;;;;;18.77;11.13;;;1.20;97.10;;;;;;5126007;27;27370;-59
2021/01/08 03:34:59;;;;;;;16.23;9.85;;;1.20;97.20;;;;;;5126000;27;27413;-58
2021/01/08 03:37:44;;;;;;;21.08;10.77;;;1.20;97.20;;;;;;5125700;27;27435;-59
2021/01/08 03:40:29;;;;;;;18.40;10.35;;;1.20;97.20;;;;;;5125978;27;27470;-58
2021/01/08 03:43:13;;;;;;;15.98;9.40;;;1.20;97.20;;;;;;5125660;27;27423;-59
2021/01/08 03:45:58;;;;;;;17.20;9.77;;;1.20;97.10;;;;;;5126072;27;27464;-58
2021/01/08 03:48:43;;;;;;;16.20;9.75;;;1.20;97.10;;;;;;5125768;27;27504;-59
2021/01/08 03:51:27;;;;;;;15.02;9.57;;;1.20;97.10;;;;;;5126111;27;27461;-59
2021/01/08 03:54:12;;;;;;;16.08;10.02;;;1.20;97.10;;;;;;5125637;27;27385;-58
2021/01/08 03:56:56;;;;;;;16.40;10.07;;;1.20;97.10;;;;;;5125992;27;27480;-58
2021/01/08 03:59:41;;;;;;;16.08;9.38;;;1.20;97.20;;;;;;5125348;27;27629;-58
2021/01/08 04:02:25;;;;;;;19.17;9.73;;;1.20;97.10;;;;;;5125512;27;27477;-58
2021/01/08 04:05:10;;;;;;;17.35;9.40;;;1.20;97.10;;;;;;5125618;27;27418;-58
2021/01/08 04:07:55;;;;;;;17.85;9.50;;;1.20;97.10;;;;;;5122220;27;27859;-58
2021/01/08 04:10:39;;;;;;;18.17;10.00;;;1.20;97.10;;;;;;5125491;27;27397;-57
2021/01/08 04:13:23;;;;;;;17.95;9.63;;;1.20;97.10;;;;;;5125618;27;27409;-58
2021/01/08 04:16:08;;;;;;;18.20;9.95;;;1.20;97.10;;;;;;5125467;27;27390;-58
2021/01/08 04:18:52;;;;;;;17.38;9.27;;;1.10;97.10;;;;;;5125595;27;27963;-58
2021/01/08 04:21:37;;;;;;;18.20;10.35;;;1.10;97.10;;;;;;5125602;27;27386;-58
2021/01/08 04:24:21;;;;;;;16.73;9.38;;;1.20;97.20;;;;;;5125329;27;27401;-58
2021/01/08 04:27:05;;;;;;;15.18;9.18;;;1.20;97.20;;;;;;5125023;27;27319;-58
2021/01/08 04:29:50;;;;;;;16.83;9.68;;;1.10;97.20;;;;;;5121387;27;27365;-58
2021/01/08 04:32:34;;;;;;;19.67;9.80;;;1.10;97.20;;;;;;5125154;27;27422;-59
2021/01/08 04:35:19;;;;;;;19.38;9.52;;;1.10;97.20;;;;;;5125508;27;27445;-59
2021/01/08 04:38:03;;;;;;;17.00;9.55;;;1.10;97.50;;;;;;5124619;27;27588;-58
2021/01/08 04:40:49;;;;;;;14.43;9.43;;;1.10;97.10;;;;;;5125331;27;27975;-57
2021/01/08 04:43:37;;;;;;;18.58;9.52;;;1.10;97.10;;;;;;5124975;27;27487;-58
2021/01/08 04:46:32;;;;;;;18.08;9.43;;;1.10;97.10;;;;;;5125260;27;27318;-57
2021/01/08 04:49:16;;;;;;;15.50;9.27;;;1.10;97.10;;;;;;5125407;27;27378;-58
2021/01/08 04:52:01;;;;;;;18.35;10.05;;;1.10;97.20;;;;;;5110007;27;27857;-58
2021/01/08 04:54:45;;;;;;;14.25;9.25;;;1.10;97.10;;;;;;5106661;27;27484;-58
2021/01/08 04:57:31;;;;;;;16.08;9.70;;;1.10;97.10;;;;;;5124156;27;27518;-58
2021/01/08 05:00:16;;;;;;;15.88;9.77;;;1.10;97.20;;;;;;5120792;27;27370;-58
2021/01/08 05:03:02;;;;;;;15.60;8.65;;;1.10;97.20;;;;;;5123765;27;27343;-58
2021/01/08 05:05:46;;;;;;;14.55;8.45;;;1.10;97.20;;;;;;5127751;27;27414;-58
2021/01/08 05:08:30;;;;;;;16.02;9.00;;;1.10;97.20;;;;;;5128742;27;27418;-49
2021/01/08 05:11:29;;;;;;;12.43;8.35;;;1.10;97.20;;;;;;5128649;27;27366;-58
2021/01/08 05:14:15;;;;;;;14.57;8.75;;;1.10;97.20;;;;;;5127797;27;27951;-58
2021/01/08 05:16:59;;;;;;;15.50;8.93;;;1.00;97.20;;;;;;5128184;27;27430;-57
2021/01/08 05:19:47;;;;;;;15.90;8.95;;;1.00;97.20;;;;;;5127893;27;27571;-58
2021/01/08 05:22:31;;;;;;;16.30;9.15;;;1.00;97.30;;;;;;5124179;27;27430;-56
2021/01/08 05:25:16;;;;;;;14.15;8.55;;;1.00;97.30;;;;;;5127425;27;27957;-58
2021/01/08 05:28:01;;;;;;;17.02;9.07;;;1.00;97.30;;;;;;5128320;27;27488;-57
2021/01/08 05:30:46;;;;;;;13.82;8.65;;;1.00;97.30;;;;;;5128087;27;27407;-57
2021/01/08 05:33:30;;;;;;;14.73;8.68;;;1.10;97.40;;;;;;5128296;27;27503;-57
2021/01/08 05:36:15;;;;;;;15.18;8.65;;;1.00;97.30;;;;;;5127151;27;27464;-58
2021/01/08 05:39:00;;;;;;;14.45;8.88;;;1.10;97.30;;;;;;5127382;27;27521;-49
2021/01/08 05:41:44;;;;;;;15.23;8.80;;;1.10;97.30;;;;;;5127871;27;27491;-57
2021/01/08 05:44:29;;;;;;;14.77;8.05;;;1.10;97.20;;;;;;5128160;27;27335;-58
2021/01/08 05:47:14;;;;;;;14.02;8.20;;;1.10;97.20;;;;;;5111951;27;27858;-57
2021/01/08 05:49:58;;;;;;;16.13;8.43;;;1.00;97.60;;;;;;5127762;27;27482;-56
2021/01/08 05:52:42;;;;;;;12.98;7.65;;;1.00;97.20;;;;;;5112527;27;27413;-56
2021/01/08 05:55:27;;;;;;;14.13;7.82;;;1.00;97.20;;;;;;5112559;27;27339;-57
2021/01/08 05:58:22;;;;;;;14.27;8.20;;;1.00;97.20;;;;;;5127611;27;27372;-57
2021/01/08 06:01:06;;;;;;;13.85;8.35;;;1.00;97.20;;;;;;5127829;27;27374;-57
2021/01/08 06:03:50;;;;;;;16.15;8.93;;;1.00;97.20;;;;;;5127614;27;27347;-57
2021/01/08 06:06:39;;;;;;;13.73;8.45;;;1.00;97.20;;;;;;5112233;27;27350;-57
2021/01/08 06:09:23;;;;;;;14.65;8.00;;;1.00;97.30;;;;;;5127695;27;27338;-57
2021/01/08 06:12:08;;;;;;;17.10;8.45;;;1.10;97.20;;;;;;5126638;27;27438;-54
2021/01/08 06:14:53;;;;;;;14.60;8.02;;;1.00;97.20;;;;;;5125923;27;27343;-57
2021/01/08 06:17:38;;;;;;;14.38;8.48;;;1.10;97.20;;;;;;5126925;27;27394;-57
2021/01/08 06:20:22;;;;;;;13.70;8.27;;;1.00;97.20;;;;;;5127196;27;28024;-55
2021/01/08 06:23:07;;;;;;;14.77;8.13;;;1.00;97.20;;;;;;5126205;27;27370;-56
2021/01/08 06:25:51;;;;;;;14.10;8.48;;;1.00;97.20;;;;;;5127224;27;27327;-57
2021/01/08 06:28:38;;;;;;;15.23;8.80;;;1.00;97.50;;;;;;5111944;27;27363;-57
2021/01/08 06:31:24;;;;;;;12.20;8.15;;;1.00;97.20;;;;;;5127301;27;27926;-56
2021/01/08 06:34:08;;;;;;;12.02;7.82;;;1.00;97.20;;;;;;5127031;27;27381;-56
2021/01/08 06:37:03;;;;;;;14.82;8.82;;;1.00;97.20;;;;;;5126677;27;27620;-50
2021/01/08 06:39:47;;;;;;;14.63;8.20;;;1.00;97.20;;;;;;5127252;27;27393;-55
2021/01/08 06:42:32;;;;;;;11.60;7.65;;;1.00;97.20;;;;;;5126475;27;27410;-56
2021/01/08 06:45:17;;;;;;;12.90;7.60;;;1.00;97.30;;;;;;5126411;27;27390;-56
2021/01/08 06:48:02;;;;;;;13.40;7.82;;;1.00;97.30;;;;;;5126864;27;27389;-56
2021/01/08 06:50:46;;;;;;;12.90;7.78;;;1.00;97.20;;;;;;5126884;27;27403;-56
2021/01/08 06:53:31;;;;;;;13.95;7.88;;;1.00;97.10;;;;;;5111750;27;27376;-54
2021/01/08 06:56:15;;;;;;;13.70;8.10;;;1.00;97.20;;;;;;5126205;27;27614;-56
2021/01/08 06:59:01;;;;;;;14.10;8.18;;;1.00;97.20;;;;;;5111800;27;27300;-56
2021/01/08 07:01:59;;;;;;;13.27;8.32;;;1.00;97.20;;;;;;5126919;27;27390;-56
2021/01/08 07:04:44;;;;;;;12.25;7.70;;;1.00;97.20;;;;;;5125985;27;27380;-55
2021/01/08 07:07:29;;;;;;;12.13;7.63;;;1.00;97.20;;;;;;5125812;27;27341;-56
2021/01/08 07:10:18;;;;;;;14.27;8.27;;;1.00;97.30;;;;;;5126140;27;27709;-56
2021/01/08 07:13:03;;;;;;;14.15;9.15;;;1.00;97.30;;;;;;5125724;27;27509;-57
2021/01/08 07:15:47;;;;;;;13.75;7.93;;;1.00;97.20;;;;;;5126269;27;27509;-56
2021/01/08 07:18:34;;;;;;;13.43;7.80;;;1.00;97.20;;;;;;5126228;27;27422;-55
2021/01/08 07:21:23;;;;;;;12.77;7.50;;;1.00;97.20;;;;;;5126571;27;27407;-55
2021/01/08 07:24:09;;;;;;;16.40;8.77;;;1.00;97.20;;;;;;5126236;27;27386;-56
2021/01/08 07:26:54;;;;;;;12.77;8.90;;;1.00;97.20;;;;;;5125445;27;27380;-55
2021/01/08 07:29:38;;;;;;;16.98;8.98;;;1.00;97.20;;;;;;5126448;27;27401;-54
2021/01/08 07:32:40;;;;;;;13.85;8.48;;;1.10;97.20;;;;;;5126119;27;27380;-56
2021/01/08 07:35:29;;;;;;;14.52;8.80;;;1.10;97.20;;;;;;5126345;27;27339;-56
2021/01/08 07:38:15;;;;;;;14.88;9.10;;;1.10;97.10;;;;;;5123898;27;27598;-55
2021/01/08 07:40:59;;;;;;;13.18;8.63;;;1.10;97.10;;;;;;5125975;27;27434;-56
2021/01/08 07:43:44;;;;;;;14.30;8.63;;;1.20;97.00;;;;;;5125990;27;27377;-55
2021/01/08 07:46:34;;;;;;;14.85;9.05;;;1.10;96.90;;;;;;5125911;27;27378;-55
2021/01/08 07:49:26;;;;;;;14.80;9.50;;;1.20;96.90;;;;;;5125844;27;27441;-56
2021/01/08 07:52:11;;;;;;;17.20;9.68;;;1.20;96.80;;;;;;5125755;27;27523;-55
2021/01/08 07:54:55;;;;;;;13.60;8.70;;;1.20;96.70;;;;;;5126084;27;27438;-54
2021/01/08 07:58:01;;;;;;;15.40;8.98;;;1.20;96.60;;;;;;5125990;27;27458;-53
2021/01/08 08:00:45;;;;;;;15.60;8.98;;;1.20;96.60;;;;;;5125931;27;27863;-55
2021/01/08 08:03:29;;;;;;;16.80;10.10;;;1.30;96.70;;;;;;5110353;27;27462;-54
2021/01/08 08:06:14;;;;;;;13.18;9.52;;;1.30;96.60;;;;;;5125039;27;27393;-55
2021/01/08 08:09:03;;;;;;;14.70;8.85;;;1.30;96.50;;;;;;5110292;27;27390;-56
2021/01/08 08:11:47;;;;;;;13.48;9.07;;;1.40;96.50;;;;;;5125459;27;27924;-55
2021/01/08 08:14:32;;;;;;;17.15;10.25;;;1.40;96.40;;;;;;5125659;27;27543;-56
2021/01/08 08:17:16;;;;;;;19.42;10.60;;;1.50;96.40;;;;;;5125465;27;27459;-56
2021/01/08 08:20:01;;;;;;;20.33;11.60;;;1.50;96.30;;;;;;5124457;27;27494;-56
2021/01/08 08:22:46;;;;;;;18.92;11.02;;;1.50;96.30;;;;;;5124924;27;27840;-56
2021/01/08 08:25:31;;;;;;;19.10;10.77;;;1.50;96.20;;;;;;5121393;27;27472;-55
2021/01/08 08:28:16;;;;;;;18.55;10.30;;;1.60;96.10;;;;;;5125548;27;27478;-56
2021/01/08 08:31:01;;;;;;;19.00;10.70;;;1.60;96.10;;;;;;5125489;27;27305;-56
2021/01/08 08:33:46;;;;;;;15.20;9.88;;;1.60;96.10;;;;;;5125087;27;27871;-55
2021/01/08 08:36:34;;;;;;;15.35;10.02;;;1.60;96.00;;;;;;5124598;27;27423;-55
2021/01/08 08:39:18;;;;;;;17.65;10.07;;;1.60;95.90;;;;;;5121308;27;27468;-56
2021/01/08 08:42:03;;;;;;;17.83;10.48;;;1.70;95.90;;;;;;5124923;27;27410;-57
2021/01/08 08:44:47;;;;;;;16.52;9.80;;;1.70;96.00;;;;;;5120811;27;27823;-56
2021/01/08 08:47:31;;;;;;;15.43;9.63;;;1.70;95.90;;;;;;5125013;27;27464;-54
2021/01/08 08:50:16;;;;;;;17.83;10.32;;;1.70;95.90;;;;;;5124125;27;27343;-55
2021/01/08 08:53:11;;;;;;;16.65;10.13;;;1.70;95.90;;;;;;5124906;27;27452;-56
2021/01/08 08:55:55;;;;;;;15.90;9.95;;;1.60;95.90;;;;;;5125168;27;27520;-56
2021/01/08 08:58:44;;;;;;;14.82;9.63;;;1.60;95.80;;;;;;5124072;27;27450;-56
2021/01/08 09:01:40;;;;;;;15.13;9.20;;;1.70;95.80;;;;;;5124295;27;27631;-58
2021/01/08 09:04:24;;;;;;;15.65;10.05;;;1.60;95.80;;;;;;5124717;27;27406;-58
2021/01/08 09:07:15;;;;;;;16.08;9.45;;;1.60;95.80;;;;;;5124990;27;27860;-57
2021/01/08 09:10:09;;;;;;;12.68;8.77;;;1.60;95.80;;;;;;5124668;27;27352;-58
2021/01/08 09:13:01;;;;;;;18.73;9.32;;;1.60;95.80;;;;;;5124285;27;27405;-49
2021/01/08 09:16:03;;;;;;;19.30;9.82;;;1.70;95.80;;;;;;5124174;27;27390;-57
2021/01/08 09:18:59;;;;;;;18.15;10.38;;;1.70;95.90;;;;;;5121207;27;27429;-58
2021/01/08 09:21:48;;;;;;;17.83;9.60;;;1.70;95.80;;;;;;5123944;27;27501;-58
2021/01/08 09:24:33;;;;;;;17.90;10.57;;;1.80;95.90;;;;;;5123862;27;27381;-51
2021/01/08 09:27:18;;;;;;;16.40;9.05;;;1.90;95.80;;;;;;5124008;27;27385;-57
2021/01/08 09:30:12;;;;;;;14.43;8.68;;;1.90;95.60;;;;;;5124730;27;27361;-58
2021/01/08 09:32:57;;;;;;;12.60;8.52;;;2.10;95.50;;;;;;5124363;27;27344;-57
2021/01/08 09:35:45;;;;;;;13.43;8.70;;;2.20;95.30;;;;;;5124767;27;27425;-58
2021/01/08 09:38:30;;;;;;;12.10;8.00;;;2.30;95.00;;;;;;5123636;27;27483;-59
2021/01/08 09:41:14;;;;;;;14.77;8.88;;;2.40;94.80;;;;;;5124221;27;27363;-60
2021/01/08 09:44:00;;;;;;;13.05;8.60;;;2.50;94.50;;;;;;5124200;27;27326;-57
2021/01/08 09:46:51;;;;;;;14.55;8.70;;;2.60;94.30;;;;;;5124465;27;27721;-59
2021/01/08 09:49:43;;;;;;;14.00;7.13;;;2.70;94.10;;;;;;5124497;27;27366;-57
2021/01/08 09:52:28;;;;;;;11.18;7.20;;;2.80;94.00;;;;;;5127143;27;27423;-57
2021/01/08 09:55:31;;;;;;;13.05;7.97;;;2.90;93.90;;;;;;5127882;27;27468;-59
2021/01/08 09:58:16;;;;;;;13.57;7.47;;;2.90;93.80;;;;;;5127853;27;27450;-59
2021/01/08 10:01:00;;;;;;;11.90;7.57;;;3.00;94.00;;;;;;5124531;27;27469;-59
2021/01/08 10:03:53;;;;;;;13.20;7.88;;;3.10;93.90;;;;;;5127451;27;27895;-59
2021/01/08 10:06:58;;;;;;;15.27;7.88;;;3.20;93.70;;;;;;5127396;27;27401;-60
2021/01/08 10:09:50;;;;;;;11.57;7.13;;;3.30;93.50;;;;;;5127419;27;27397;-60
2021/01/08 10:12:45;;;;;;;10.85;6.97;;;3.40;93.30;;;;;;5127366;27;27392;-57
2021/01/08 10:15:40;;;;;;;11.13;6.53;;;3.50;93.10;;;;;;5127520;27;27336;-61
2021/01/08 10:18:26;;;;;;;12.02;7.38;;;3.70;92.90;;;;;;5127212;27;27426;-62
2021/01/08 10:21:13;;;;;;;11.75;7.18;;;3.70;92.60;;;;;;5127009;27;27339;-61
2021/01/08 10:23:57;;;;;;;10.30;6.60;;;3.80;92.40;;;;;;5127184;27;27392;-60
2021/01/08 10:26:42;;;;;;;9.90;6.50;;;4.00;92.20;;;;;;5127161;27;27380;-57
2021/01/08 10:29:38;;;;;;;11.52;6.53;;;4.10;92.10;;;;;;5127371;27;27408;-58
2021/01/08 10:32:23;;;;;;;9.25;5.72;;;4.20;91.80;;;;;;5123793;27;27367;-58
2021/01/08 10:35:09;;;;;;;8.68;5.68;;;4.20;91.60;;;;;;5127058;27;27396;-59
2021/01/08 10:37:54;;;;;;;7.97;4.93;;;4.30;91.40;;;;;;5126527;27;27376;-61
2021/01/08 10:40:38;;;;;;;8.23;5.55;;;4.30;91.40;;;;;;5127179;27;27401;-59
2021/01/08 10:43:23;;;;;;;9.25;5.35;;;4.30;91.40;;;;;;5126649;27;27344;-59
2021/01/08 10:46:07;;;;;;;6.43;4.50;;;4.30;91.40;;;;;;5127126;27;27381;-61
2021/01/08 10:48:52;;;;;;;7.18;4.85;;;4.40;91.30;;;;;;5126673;27;27980;-61
2021/01/08 10:51:36;;;;;;;5.72;4.40;;;4.30;91.30;;;;;;5126955;27;27376;-60
2021/01/08 10:54:21;;;;;;;5.97;4.22;;;4.40;91.20;;;;;;5126673;27;27330;-59
2021/01/08 10:57:06;;;;;;;6.32;4.28;;;4.40;91.20;;;;;;5122944;27;27363;-57
2021/01/08 10:59:51;;;;;;;6.00;4.32;;;4.40;90.90;;;;;;5126871;27;27343;-59
2021/01/08 11:02:36;;;;;;;5.65;4.15;;;4.50;90.80;;;;;;5126481;27;27510;-60
2021/01/08 11:05:21;;;;;;;4.55;3.80;;;4.50;90.70;;;;;;5126602;27;27379;-58
2021/01/08 11:08:09;;;;;;;5.85;3.95;;;4.50;90.60;;;;;;5126592;27;27377;-60
2021/01/08 11:10:54;;;;;;;5.95;4.15;;;4.50;90.60;;;;;;5126771;27;27325;-60
2021/01/08 11:13:38;;;;;;;4.90;3.15;;;4.40;90.60;;;;;;5126471;27;27432;-59
2021/01/08 11:16:23;;;;;;;4.75;3.33;;;4.40;90.60;;;;;;5126039;27;27388;-60
2021/01/08 11:19:07;;;;;;;8.15;3.10;;;4.40;90.70;;;;;;5126720;27;27339;-60
2021/01/08 11:21:55;;;;;;;5.00;3.72;;;4.40;90.70;;;;;;5126306;27;27396;-59
2021/01/08 11:24:40;;;;;;;3.90;2.92;;;4.30;90.70;;;;;;5126531;27;27307;-60
2021/01/08 11:27:24;;;;;;;5.13;3.30;;;4.30;90.90;;;;;;5126543;27;27420;-59
2021/01/08 11:30:09;;;;;;;5.60;3.78;;;4.30;90.90;;;;;;5126500;27;27365;-60
2021/01/08 11:32:54;;;;;;;3.88;3.00;;;4.30;91.00;;;;;;5126179;27;27866;-59
2021/01/08 11:35:39;;;;;;;6.22;3.20;;;4.30;91.00;;;;;;5126087;27;27400;-59
2021/01/08 11:38:24;;;;;;;5.93;3.30;;;4.30;91.00;;;;;;5125157;27;27458;-58
2021/01/08 11:41:09;;;;;;;5.68;3.40;;;4.30;90.80;;;;;;5126340;27;27381;-58
2021/01/08 11:43:54;;;;;;;4.97;3.65;;;4.40;90.80;;;;;;5125241;27;27335;-58
2021/01/08 11:46:39;;;;;;;6.07;4.00;;;4.40;90.70;;;;;;5126158;27;27413;-60
2021/01/08 11:49:23;;;;;;;7.55;3.53;;;4.50;90.60;;;;;;5125697;27;27347;-57
2021/01/08 11:52:08;;;;;;;6.82;3.78;;;4.40;90.50;;;;;;5126085;27;27394;-57
2021/01/08 11:54:52;;;;;;;6.70;3.70;;;4.50;90.50;;;;;;5124744;27;27888;-59
2021/01/08 11:57:38;;;;;;;6.57;4.55;;;4.50;90.40;;;;;;5125634;27;27403;-59
2021/01/08 12:00:23;;;;;;;8.68;5.00;;;4.50;90.40;;;;;;5125693;27;27393;-59
2021/01/08 12:03:07;;;;;;;8.32;5.10;;;4.50;90.40;;;;;;5125172;27;27369;-59
2021/01/08 12:05:53;;;;;;;9.52;5.50;;;4.50;90.40;;;;;;5125201;27;27359;-59
2021/01/08 12:08:37;;;;;;;10.57;6.22;;;4.40;90.40;;;;;;5125402;27;27314;-59
2021/01/08 12:11:22;;;;;;;10.70;5.65;;;4.40;90.50;;;;;;5124609;27;27386;-55
2021/01/08 12:14:07;;;;;;;10.05;6.22;;;4.40;90.50;;;;;;5124345;27;27395;-56
2021/01/08 12:16:52;;;;;;;11.32;5.90;;;4.40;90.60;;;;;;5125177;27;28002;-56
2021/01/08 12:19:37;;;;;;;9.65;5.72;;;4.40;90.50;;;;;;5121947;27;27407;-57
2021/01/08 12:22:22;;;;;;;10.55;5.70;;;4.40;90.50;;;;;;5125231;27;27385;-59
2021/01/08 12:25:08;;;;;;;13.15;5.47;;;4.40;90.50;;;;;;5121787;27;27377;-57
2021/01/08 12:27:52;;;;;;;7.40;5.00;;;4.40;90.50;;;;;;5125051;27;27339;-57
2021/01/08 12:30:37;;;;;;;9.43;5.13;;;4.40;90.50;;;;;;5124931;27;27359;-57
2021/01/08 12:33:22;;;;;;;7.95;5.00;;;4.40;90.50;;;;;;5125219;27;27417;-60
2021/01/08 12:36:09;;;;;;;8.13;4.90;;;4.30;90.60;;;;;;5125214;27;27344;-58
2021/01/08 12:38:53;;;;;;;8.82;5.25;;;4.30;90.60;;;;;;5124309;27;27640;-60
2021/01/08 12:41:38;;;;;;;8.55;5.03;;;4.30;90.70;;;;;;5124753;27;27522;-58
2021/01/08 12:44:23;;;;;;;9.40;5.43;;;4.30;90.60;;;;;;5124638;27;27343;-59
2021/01/08 12:47:07;;;;;;;8.25;4.68;;;4.30;90.70;;;;;;5121320;27;27323;-60
2021/01/08 12:49:52;;;;;;;7.38;5.20;;;4.30;90.70;;;;;;5124507;27;27956;-58
2021/01/08 12:52:37;;;;;;;9.90;5.00;;;4.30;90.70;;;;;;5124736;27;27627;-55
2021/01/08 12:55:21;;;;;;;8.32;5.05;;;4.30;90.70;;;;;;5121613;27;27331;-57
2021/01/08 12:58:06;;;;;;;7.88;4.78;;;4.20;90.70;;;;;;5124706;27;27416;-59
2021/01/08 13:00:50;;;;;;;9.02;4.47;;;4.20;90.80;;;;;;5124785;27;27884;-59
2021/01/08 13:03:35;;;;;;;7.60;5.00;;;4.10;91.00;;;;;;5124274;27;27559;-60
2021/01/08 13:06:28;;;;;;;8.50;4.72;;;4.00;91.10;;;;;;5123963;27;27494;-61
2021/01/08 13:09:12;;;;;;;7.00;4.53;;;4.00;91.20;;;;;;5124658;27;27511;-60
2021/01/08 13:11:57;;;;;;;8.65;4.93;;;3.90;91.30;;;;;;5124397;27;27433;-60
2021/01/08 13:14:42;;;;;;;6.40;4.60;;;3.90;91.40;;;;;;5121261;27;27411;-60
2021/01/08 13:17:28;;;;;;;7.30;4.82;;;3.90;91.50;;;;;;5124411;27;27484;-60
2021/01/08 13:20:13;;;;;;;8.27;4.63;;;3.80;91.60;;;;;;5124336;27;27456;-60
2021/01/08 13:22:57;;;;;;;6.20;4.13;;;3.80;91.60;;;;;;5124371;27;27428;-59
2021/01/08 13:25:42;;;;;;;9.23;4.65;;;3.80;91.60;;;;;;5121833;27;27402;-58
2021/01/08 13:28:26;;;;;;;7.82;4.82;;;3.80;91.60;;;;;;5127798;27;27413;-53
2021/01/08 13:31:11;;;;;;;6.85;4.20;;;3.80;91.60;;;;;;5127762;27;27474;-56
2021/01/08 13:33:55;;;;;;;8.40;4.65;;;3.80;91.50;;;;;;5127492;27;27698;-57
2021/01/08 13:36:40;;;;;;;7.80;4.85;;;3.80;91.50;;;;;;5126771;27;27405;-57
2021/01/08 13:39:26;;;;;;;6.57;4.25;;;3.80;91.40;;;;;;5128016;27;27395;-61
2021/01/08 13:42:11;;;;;;;6.13;4.25;;;3.80;91.80;;;;;;5127559;27;27477;-58
2021/01/08 13:44:56;;;;;;;10.23;5.35;;;3.90;91.40;;;;;;5127806;27;27456;-58
2021/01/08 13:47:41;;;;;;;5.88;4.10;;;3.90;91.40;;;;;;5127676;27;27421;-58
2021/01/08 13:50:25;;;;;;;8.40;4.70;;;3.90;91.40;;;;;;5127730;27;27478;-58
2021/01/08 13:53:10;;;;;;;8.45;4.80;;;3.80;91.40;;;;;;5127688;27;27407;-58
2021/01/08 13:55:54;;;;;;;7.65;4.55;;;3.80;91.40;;;;;;5127637;27;27407;-58
2021/01/08 13:58:39;;;;;;;7.40;4.53;;;3.80;91.40;;;;;;5127545;27;27342;-57
2021/01/08 14:01:23;;;;;;;7.18;4.60;;;3.80;91.50;;;;;;5127097;27;27327;-57
2021/01/08 14:04:08;;;;;;;8.57;4.88;;;3.80;91.40;;;;;;5127432;27;27558;-58
2021/01/08 14:06:53;;;;;;;7.68;5.03;;;3.80;91.40;;;;;;5127704;27;27401;-56
2021/01/08 14:09:37;;;;;;;8.27;4.82;;;3.80;91.40;;;;;;5127715;27;27394;-57
2021/01/08 14:12:22;;;;;;;6.90;4.40;;;3.80;91.40;;;;;;5127503;27;27404;-57
2021/01/08 14:15:07;;;;;;;6.18;4.60;;;3.80;91.50;;;;;;5127717;27;27331;-58
2021/01/08 14:17:52;;;;;;;6.57;4.63;;;3.80;91.60;;;;;;5127387;27;27369;-57
2021/01/08 14:20:37;;;;;;;6.93;4.75;;;3.70;91.60;;;;;;5127640;27;27432;-57